Prins Christian Sund

KL  EN  DA
ASIAQ
Weather Now GREENLAND SURVEY
Updated [WGT/WGST] Temperature [°C] Wind [m/s] Air pressure [hPa] Relative humidity [%] Precipitation [mm]
Present Wind chill Speed Max
06.07 07:00n/an/a6,7 ⇓12,91000n/an/a
06.07 06:00n/an/a9,8 ⇓16,01000n/an/a
06.07 05:00n/an/a7,7 ⇙12,9999n/an/a
06.07 04:00n/an/a5,7 ⇓10,31000n/an/a
06.07 03:00n/an/a3,1 ⇓7,21000n/an/a
06.07 02:00n/an/a1,0 ⇖2,11000n/an/a
06.07 01:00n/an/a2,1 ⇐4,11000n/an/a
06.07 00:00n/an/a1,0 ⇙2,11001n/an/a
05.07 23:00n/an/a4,1 ⇓7,71001n/an/a
05.07 22:00n/an/a6,7 ⇓10,81001n/an/a
05.07 21:00n/an/a5,1 ⇙8,81000n/an/a
05.07 20:00n/an/a3,6 ⇙6,71000n/an/a
05.07 19:00n/an/a4,6 ⇙8,8999n/an/a
05.07 18:00n/an/a6,7 ⇓13,4999n/an/a
05.07 17:00n/an/a9,3 ⇓13,9999n/an/a
05.07 16:00n/an/a10,3 ⇓14,9999n/an/a
05.07 15:00n/an/a5,7 ⇙9,3999n/an/a
05.07 14:00n/an/a9,3 ⇓14,9999n/an/a
05.07 13:00n/an/a11,3 ⇓18,5997n/an/a
05.07 12:00n/an/a9,3 ⇓14,4998n/an/a
05.07 11:00n/an/a9,3 ⇓15,4997n/an/a
05.07 10:00n/an/a6,7 ⇓12,4998n/an/a
05.07 09:00n/an/a10,3 ⇓16,0997n/an/a
05.07 08:00n/an/a10,3 ⇓17,0998n/an/a
05.07 07:00n/an/a4,1 ⇙7,2998n/an/a
Position: (60.05527777,-43.16527777)

[Back]